Time;durP1;ratioP1;P1;durP2;ratioP2;P2;SDS_P1;SDS_P2;PMS_P1;PMS_P2;Temp;Humidity;BMP_temperature;BMP_pressure;BME280_temperature;BME280_humidity;BME280_pressure;Samples;Min_cycle;Max_cycle;Signal;HPM_P1;HPM_P2
2022/11/24 00:01:04;;;;;;;12.67;11.57;;;;;;;21.75;40.50;93980.09;6224027;27;103926;-67
2022/11/24 00:04:08;;;;;;;12.43;11.30;;;;;;;21.75;41.13;93974.75;6229250;28;103935;-66
2022/11/24 00:07:11;;;;;;;12.50;11.47;;;;;;;21.75;40.67;93977.41;6230612;27;103819;-66
2022/11/24 00:10:14;;;;;;;11.90;10.90;;;;;;;21.75;40.99;93972.09;6223121;27;106066;-66
2022/11/24 00:13:18;;;;;;;11.70;10.80;;;;;;;21.74;40.84;93973.19;6230646;27;103709;-66
2022/11/24 00:16:23;;;;;;;12.60;11.30;;;;;;;21.74;40.99;93975.88;6231570;27;103725;-67
2022/11/24 00:19:26;;;;;;;11.27;10.30;;;;;;;21.74;40.63;93991.84;6214147;27;103662;-67
2022/11/24 00:22:29;;;;;;;11.17;10.20;;;;;;;21.74;40.13;93994.50;6219655;28;103841;-66
2022/11/24 00:25:32;;;;;;;11.20;10.30;;;;;;;21.75;40.25;93998.72;6231120;27;104165;-66
2022/11/24 00:28:37;;;;;;;10.63;9.73;;;;;;;21.75;40.47;93990.72;6232164;27;103872;-67
2022/11/24 00:31:42;;;;;;;10.87;9.87;;;;;;;21.73;40.57;94001.72;6232135;27;103827;-66
2022/11/24 00:34:45;;;;;;;10.00;9.10;;;;;;;21.74;40.41;94003.28;6220173;27;103764;-67
2022/11/24 00:37:48;;;;;;;10.30;9.40;;;;;;;21.75;40.44;94001.38;6232037;27;103890;-66
2022/11/24 00:40:51;;;;;;;10.27;9.37;;;;;;;21.75;40.37;94004.03;6232190;28;104832;-67
2022/11/24 00:43:56;;;;;;;10.50;9.57;;;;;;;21.75;40.03;94006.72;6228427;27;104080;-66
2022/11/24 00:46:59;;;;;;;9.67;8.77;;;;;;;21.75;40.26;94001.38;6225953;27;103766;-67
2022/11/24 00:50:03;;;;;;;9.80;9.00;;;;;;;21.75;40.32;94001.38;6230694;27;105043;-67
2022/11/24 00:53:06;;;;;;;10.60;9.77;;;;;;;21.73;40.09;94011.59;6231133;27;103885;-67
2022/11/24 00:56:10;;;;;;;10.33;9.50;;;;;;;21.73;40.56;94007.03;6222805;27;106936;-65
2022/11/24 00:59:14;;;;;;;9.40;8.60;;;;;;;21.75;40.25;94006.72;6229455;27;103785;-64
2022/11/24 01:02:17;;;;;;;8.87;8.07;;;;;;;21.73;40.42;94014.25;6230578;27;103858;-67
2022/11/24 01:05:21;;;;;;;9.63;8.77;;;;;;;21.73;39.92;94012.38;6228992;27;103671;-67
2022/11/24 01:08:24;;;;;;;8.87;8.17;;;;;;;21.74;39.85;94013.16;6219567;28;103756;-66
2022/11/24 01:11:28;;;;;;;8.77;8.00;;;;;;;21.72;40.24;94012.69;6231179;28;103726;-67
2022/11/24 01:14:33;;;;;;;8.27;7.57;;;;;;;21.72;39.99;94015.34;6229717;28;103510;-67
2022/11/24 01:17:36;;;;;;;8.73;8.00;;;;;;;21.72;39.82;94007.38;6225283;27;103665;-64
2022/11/24 01:20:39;;;;;;;8.87;7.40;;;;;;;21.72;40.46;94007.38;6219075;27;105084;-65
2022/11/24 01:23:42;;;;;;;9.30;8.50;;;;;;;21.72;40.08;94007.38;6227795;27;104094;-65
2022/11/24 01:26:45;;;;;;;8.23;7.53;;;;;;;21.71;40.00;94008.47;6229158;27;103691;-65
2022/11/24 01:29:50;;;;;;;7.73;7.03;;;;;;;21.71;40.31;94006.59;6231294;28;104008;-65
2022/11/24 01:32:53;;;;;;;7.73;7.13;;;;;;;21.70;40.23;94002.38;6217041;27;103889;-66
2022/11/24 01:35:57;;;;;;;7.90;7.20;;;;;;;21.69;40.34;93990.16;6229417;27;104930;-66
2022/11/24 01:39:00;;;;;;;7.90;7.20;;;;;;;21.72;40.25;93996.72;6226625;28;104913;-66
2022/11/24 01:42:03;;;;;;;8.10;7.30;;;;;;;21.70;40.11;94001.59;6223796;27;103869;-66
2022/11/24 01:45:40;;;;;;;6.80;6.17;;;;;;;21.69;39.83;94006.16;6225829;28;104131;-66
2022/11/24 01:48:48;;;;;;;7.43;6.83;;;;;;;21.69;39.72;94003.47;6167925;28;103667;-66
2022/11/24 01:51:55;;;;;;;7.40;6.80;;;;;;;21.69;39.91;94014.13;6222832;28;103889;-66
2022/11/24 01:55:02;;;;;;;7.23;6.63;;;;;;;21.69;40.00;94005.38;6221855;27;104886;-66
2022/11/24 01:58:07;;;;;;;6.30;5.80;;;;;;;21.69;40.15;94005.38;6225800;28;104304;-66
2022/11/24 02:01:13;;;;;;;6.87;6.27;;;;;;;21.69;40.35;94016.81;6233234;27;103930;-67
2022/11/24 02:04:19;;;;;;;6.50;5.90;;;;;;;21.68;39.63;94012.59;6234132;28;104921;-65
2022/11/24 02:07:22;;;;;;;6.00;5.50;;;;;;;21.69;39.94;94002.72;6223313;28;105018;-63
2022/11/24 02:10:26;;;;;;;6.20;5.60;;;;;;;21.68;39.91;94006.47;6233204;28;103636;-62
2022/11/24 02:13:29;;;;;;;6.53;5.93;;;;;;;21.68;39.68;94006.47;6234315;27;103870;-65
2022/11/24 02:16:35;;;;;;;6.07;5.57;;;;;;;21.69;40.07;94008.03;6228535;27;103882;-63
2022/11/24 02:19:47;;;;;;;6.30;5.80;;;;;;;21.66;40.13;94009.44;6229902;28;104752;-64
2022/11/24 02:22:56;;;;;;;5.40;5.00;;;;;;;21.67;39.74;94007.56;6232625;28;104785;-64
2022/11/24 02:26:07;;;;;;;6.20;5.70;;;;;;;21.67;39.97;94015.53;6233428;28;103781;-66
2022/11/24 02:29:13;;;;;;;5.87;5.37;;;;;;;21.68;39.65;94011.81;6224040;27;103769;-64
2022/11/24 02:32:16;;;;;;;5.87;5.37;;;;;;;21.68;39.99;94015.25;6232721;27;103910;-65
2022/11/24 02:35:19;;;;;;;6.10;5.60;;;;;;;21.67;39.55;94016.31;6233747;27;104464;-65
2022/11/24 02:38:31;;;;;;;5.63;5.13;;;;;;;21.67;39.70;94015.53;6233955;27;103744;-65
2022/11/24 02:41:34;;;;;;;5.10;4.70;;;;;;;21.66;39.70;94014.75;6222260;28;103860;-63
2022/11/24 02:44:44;;;;;;;5.20;4.80;;;;;;;21.67;39.75;94018.97;6234043;27;103888;-65
2022/11/24 02:47:47;;;;;;;5.50;5.10;;;;;;;21.67;39.41;94013.66;6233976;27;103912;-65
2022/11/24 02:50:50;;;;;;;5.00;4.50;;;;;;;21.68;39.92;94022.47;6228222;27;105043;-65
2022/11/24 02:53:53;;;;;;;4.80;4.40;;;;;;;21.68;39.41;94027.78;6227178;27;103874;-64
2022/11/24 02:56:56;;;;;;;4.73;4.33;;;;;;;21.66;39.67;94014.75;6230791;28;103897;-63
2022/11/24 03:00:01;;;;;;;5.47;4.97;;;;;;;21.65;39.42;94021.19;6234678;27;104156;-66
2022/11/24 03:03:04;;;;;;;4.97;4.47;;;;;;;21.66;39.52;94014.75;6220284;27;104215;-62
2022/11/24 03:06:07;;;;;;;4.90;4.50;;;;;;;21.66;39.52;94016.66;6232395;28;104666;-65
2022/11/24 03:09:10;;;;;;;4.90;4.40;;;;;;;21.67;39.45;94020.88;6233532;27;103750;-64
2022/11/24 03:12:13;;;;;;;4.47;4.17;;;;;;;21.66;39.81;94025.41;6234125;27;103798;-64
2022/11/24 03:15:18;;;;;;;4.10;3.80;;;;;;;21.65;39.44;94023.88;6222480;28;104918;-64
2022/11/24 03:18:21;;;;;;;4.80;4.40;;;;;;;21.66;39.59;94021.97;6233736;28;103921;-65
2022/11/24 03:21:24;;;;;;;5.17;4.70;;;;;;;21.65;39.62;94029.19;6233583;27;103890;-65
2022/11/24 03:24:27;;;;;;;4.73;4.43;;;;;;;21.66;39.68;94036.06;6232169;28;104288;-64
2022/11/24 03:27:30;;;;;;;4.30;3.90;;;;;;;21.66;39.15;94037.94;6222898;27;103720;-64
2022/11/24 03:30:34;;;;;;;4.73;4.30;;;;;;;21.65;39.24;94034.50;6234022;27;103738;-64
2022/11/24 03:33:38;;;;;;;4.37;4.07;;;;;;;21.67;39.22;94047.50;6232991;27;104334;-64
2022/11/24 03:36:41;;;;;;;4.77;4.37;;;;;;;21.67;39.54;94044.84;6233871;28;104793;-64
2022/11/24 03:39:44;;;;;;;4.70;4.30;;;;;;;21.66;39.59;94045.94;6221864;27;104594;-64
2022/11/24 03:42:47;;;;;;;4.30;3.90;;;;;;;21.66;39.56;94057.38;6233011;28;104250;-64
2022/11/24 03:45:51;;;;;;;4.27;3.87;;;;;;;21.66;39.69;94056.59;6223884;28;103883;-65
2022/11/24 03:48:54;;;;;;;4.83;4.37;;;;;;;21.65;39.53;94055.03;6226139;28;103549;-65
2022/11/24 03:51:58;;;;;;;4.37;4.07;;;;;;;21.66;39.13;94064.56;6228403;27;105396;-64
2022/11/24 03:55:07;;;;;;;4.00;3.60;;;;;;;21.65;39.58;94066.47;6229596;28;103658;-64
2022/11/24 03:58:10;;;;;;;4.20;3.80;;;;;;;21.66;39.55;94072.56;6232148;27;104754;-64
2022/11/24 04:01:15;;;;;;;4.00;3.57;;;;;;;21.65;39.61;94077.09;6220914;28;104954;-63
2022/11/24 04:04:18;;;;;;;3.80;3.50;;;;;;;21.66;39.17;94077.88;6232099;28;103596;-65
2022/11/24 04:07:21;;;;;;;3.63;3.33;;;;;;;21.64;39.85;94077.44;6230358;27;103915;-64
2022/11/24 04:10:24;;;;;;;3.67;3.37;;;;;;;21.66;39.51;94085.88;6230982;27;103665;-64
2022/11/24 04:13:27;;;;;;;4.30;3.70;;;;;;;21.66;39.67;94084.00;6221002;27;103964;-64
2022/11/24 04:16:32;;;;;;;4.10;3.80;;;;;;;21.67;39.65;94084.78;6232950;28;104708;-61
2022/11/24 04:19:35;;;;;;;4.43;4.00;;;;;;;21.66;39.49;94094.63;6230022;28;105961;-62
2022/11/24 04:22:38;;;;;;;4.00;3.70;;;;;;;21.68;39.38;94087.13;6231115;27;103720;-62
2022/11/24 04:25:42;;;;;;;4.97;3.70;;;;;;;21.71;39.57;94096.34;6218776;27;103855;-62
2022/11/24 04:28:45;;;;;;;4.33;3.93;;;;;;;21.71;39.40;94096.34;6230864;27;104027;-63
2022/11/24 04:31:50;;;;;;;4.47;4.07;;;;;;;21.70;39.02;94100.13;6230606;28;104393;-65
2022/11/24 04:34:53;;;;;;;4.40;4.00;;;;;;;21.69;38.58;94109.22;6226437;27;103668;-64
2022/11/24 04:37:56;;;;;;;4.43;3.60;;;;;;;21.68;38.62;94113.75;6226800;28;103850;-64
2022/11/24 04:41:01;;;;;;;4.33;3.93;;;;;;;21.69;38.31;94107.31;6232052;27;103875;-64
2022/11/24 04:44:04;;;;;;;4.70;4.30;;;;;;;21.70;38.59;94110.78;6232519;27;103893;-64
2022/11/24 04:47:15;;;;;;;6.40;5.10;;;;;;;21.68;38.61;94110.31;6219879;27;103821;-64
2022/11/24 04:50:18;;;;;;;8.50;5.07;;;;;;;21.74;38.54;94111.66;6232265;28;103840;-64
2022/11/24 04:53:21;;;;;;;6.90;4.50;;;;;;;21.69;38.56;94117.97;6228689;28;103885;-63
2022/11/24 04:56:24;;;;;;;5.20;4.67;;;;;;;21.69;38.53;94117.19;6229465;27;103797;-64
2022/11/24 04:59:27;;;;;;;7.73;4.90;;;;;;;21.67;38.88;94119.38;6222292;27;104723;-65
2022/11/24 05:02:32;;;;;;;5.10;4.40;;;;;;;21.68;38.66;94119.09;6231329;27;103638;-65
2022/11/24 05:05:35;;;;;;;5.30;4.50;;;;;;;21.73;38.05;94116.22;6231416;27;103402;-67
2022/11/24 05:08:38;;;;;;;5.10;4.60;;;;;;;21.73;38.91;94126.09;6232127;28;104841;-64
2022/11/24 05:11:41;;;;;;;7.53;4.90;;;;;;;21.80;39.14;94134.31;6217764;27;104388;-65
2022/11/24 05:14:44;;;;;;;6.43;4.53;;;;;;;21.83;40.28;94120.38;6227908;28;104688;-65
2022/11/24 05:17:48;;;;;;;8.17;5.20;;;;;;;21.86;39.61;94122.41;6225420;27;103724;-65
2022/11/24 05:20:51;;;;;;;7.93;5.10;;;;;;;21.89;40.10;94135.06;6225963;27;104505;-67
2022/11/24 05:23:54;;;;;;;6.50;4.40;;;;;;;21.85;40.17;94136.84;6224581;27;104039;-64
2022/11/24 05:26:57;;;;;;;5.07;4.57;;;;;;;21.80;40.42;94129.78;6228868;27;103390;-65
2022/11/24 05:30:00;;;;;;;6.27;4.37;;;;;;;21.81;39.65;94138.53;6230773;27;103694;-66
2022/11/24 05:33:06;;;;;;;5.53;4.70;;;;;;;21.80;40.07;94137.75;6220425;27;104401;-65
2022/11/24 05:36:51;;;;;;;9.17;4.33;;;;;;;21.80;39.60;94135.09;6230432;28;103803;-65
2022/11/24 05:39:35;;;;;;;7.00;4.00;;;;;;;21.78;39.71;94136.53;6229614;28;103689;-65
2022/11/24 05:42:40;;;;;;;5.03;4.27;;;;;;;21.78;39.42;94141.84;6229663;27;103865;-65
2022/11/24 05:45:49;;;;;;;4.43;4.00;;;;;;;21.77;39.69;94150.97;6218407;27;103889;-65
2022/11/24 05:48:53;;;;;;;5.30;4.07;;;;;;;21.75;39.95;94153.94;6229483;27;103873;-65
2022/11/24 05:51:56;;;;;;;4.87;4.37;;;;;;;21.76;39.38;94149.41;6230705;27;103904;-66
2022/11/24 05:54:59;;;;;;;5.00;4.20;;;;;;;21.77;39.40;94148.28;6226630;27;103572;-65
2022/11/24 05:58:05;;;;;;;4.93;4.13;;;;;;;21.75;39.40;94151.28;6224373;27;104776;-65
2022/11/24 06:01:08;;;;;;;4.10;3.80;;;;;;;21.74;39.91;94149.72;6230917;27;103672;-66
2022/11/24 06:04:12;;;;;;;6.03;4.17;;;;;;;21.73;39.68;94156.16;6231693;27;104928;-65
2022/11/24 06:07:15;;;;;;;5.97;3.97;;;;;;;21.72;39.71;94159.16;6221288;27;103952;-65
2022/11/24 06:10:20;;;;;;;5.33;3.80;;;;;;;21.74;39.51;94164.94;6230228;27;103697;-65
2022/11/24 06:13:23;;;;;;;3.83;3.40;;;;;;;21.72;39.42;94167.91;6231481;28;104671;-65
2022/11/24 06:16:26;;;;;;;7.30;3.53;;;;;;;21.70;39.27;94166.69;6230516;27;103462;-65
2022/11/24 06:19:31;;;;;;;4.40;4.00;;;;;;;21.70;39.66;94164.81;6220208;28;104698;-65
2022/11/24 06:22:34;;;;;;;3.83;3.53;;;;;;;21.70;39.49;94170.13;6231128;27;104159;-65
2022/11/24 06:25:37;;;;;;;5.43;3.90;;;;;;;21.71;39.40;94176.22;6230610;28;104869;-65
2022/11/24 06:28:40;;;;;;;3.57;3.27;;;;;;;21.71;39.16;94169.03;6230176;27;103521;-65
2022/11/24 06:31:43;;;;;;;3.87;3.47;;;;;;;21.73;39.59;94180.13;6221544;28;106997;-65
2022/11/24 06:34:48;;;;;;;4.07;3.40;;;;;;;21.73;39.19;94185.44;6230914;28;103787;-65
2022/11/24 06:37:51;;;;;;;4.07;3.37;;;;;;;21.76;39.06;94192.00;6232719;28;103465;-65
2022/11/24 06:40:59;;;;;;;4.10;3.53;;;;;;;21.76;39.49;94195.44;6227713;27;103724;-65
2022/11/24 06:44:03;;;;;;;3.63;3.33;;;;;;;21.78;39.34;94203.88;6235001;28;104927;-65
2022/11/24 06:47:06;;;;;;;4.60;3.87;;;;;;;21.94;38.84;94206.78;6234932;28;102886;-65
2022/11/24 06:50:11;;;;;;;3.83;3.30;;;;;;;22.00;38.76;94224.13;6235444;27;103787;-65
2022/11/24 06:53:14;;;;;;;8.53;3.90;;;;;;;22.14;38.29;94225.75;6224378;28;104880;-65
2022/11/24 06:56:19;;;;;;;4.07;3.67;;;;;;;22.35;38.14;94226.53;6235395;27;103830;-64
2022/11/24 06:59:22;;;;;;;3.90;3.60;;;;;;;22.03;38.63;94230.72;6234122;27;103862;-65
2022/11/24 07:02:25;;;;;;;4.00;3.67;;;;;;;21.96;38.47;94233.09;6234946;27;105095;-65
2022/11/24 07:05:30;;;;;;;3.70;3.40;;;;;;;21.93;38.54;94242.53;6225236;27;103657;-65
2022/11/24 07:08:33;;;;;;;4.53;3.40;;;;;;;21.87;39.18;94243.81;6234895;27;103891;-65
2022/11/24 07:11:36;;;;;;;4.57;3.73;;;;;;;21.85;39.24;94240.72;6235453;28;103522;-65
2022/11/24 07:14:39;;;;;;;4.07;3.70;;;;;;;21.85;39.04;94240.72;6229721;28;103946;-65
2022/11/24 07:17:42;;;;;;;4.70;4.30;;;;;;;21.84;39.17;94244.44;6229650;27;104471;-65
2022/11/24 07:20:47;;;;;;;5.37;4.17;;;;;;;21.83;38.74;94264.19;6234563;27;103693;-65
2022/11/24 07:23:50;;;;;;;4.30;3.87;;;;;;;21.83;39.17;94258.88;6233880;27;105561;-65
2022/11/24 07:26:53;;;;;;;5.90;4.40;;;;;;;21.83;39.20;94268.75;6223552;27;103840;-65
2022/11/24 07:29:56;;;;;;;5.00;4.50;;;;;;;21.83;38.78;94269.53;6233398;27;103564;-65
2022/11/24 07:32:59;;;;;;;4.83;4.13;;;;;;;21.81;39.00;94269.81;6234127;27;103734;-65
2022/11/24 07:36:06;;;;;;;4.73;4.30;;;;;;;21.81;38.97;94275.16;6234798;27;103894;-65
2022/11/24 07:39:09;;;;;;;4.73;4.40;;;;;;;21.81;38.92;94275.16;6223874;27;103752;-65
2022/11/24 07:42:12;;;;;;;4.60;4.30;;;;;;;21.81;39.27;94280.47;6234843;28;103872;-65
2022/11/24 07:45:15;;;;;;;4.90;4.37;;;;;;;21.80;38.79;94286.91;6234202;27;104265;-64
2022/11/24 07:48:18;;;;;;;4.70;4.30;;;;;;;21.79;39.42;94281.91;6229433;27;104041;-64
2022/11/24 07:51:23;;;;;;;5.17;4.63;;;;;;;21.82;39.15;94281.28;6228241;27;103782;-64
2022/11/24 07:54:26;;;;;;;5.03;4.50;;;;;;;21.84;39.31;94294.28;6234095;27;103477;-64
2022/11/24 07:57:29;;;;;;;5.67;4.13;;;;;;;21.81;39.49;94299.13;6234414;27;104300;-64
2022/11/24 08:00:32;;;;;;;5.10;4.53;;;;;;;21.81;38.95;94304.44;6222822;27;105094;-64
2022/11/24 08:03:36;;;;;;;4.90;4.50;;;;;;;21.81;39.34;94306.31;6234478;27;104374;-64
2022/11/24 08:06:40;;;;;;;4.60;4.20;;;;;;;21.82;38.86;94307.91;6234039;27;103669;-64
2022/11/24 08:09:51;;;;;;;6.97;4.40;;;;;;;21.82;38.77;94313.25;6235008;28;105127;-64
2022/11/24 08:12:59;;;;;;;4.43;4.03;;;;;;;21.81;38.96;94322.31;6222632;27;103862;-65
2022/11/24 08:16:08;;;;;;;4.77;3.93;;;;;;;21.78;39.41;94326.41;6235470;28;103493;-64
2022/11/24 08:19:11;;;;;;;4.37;4.03;;;;;;;21.81;39.20;94322.31;6234190;27;103707;-64
2022/11/24 08:22:15;;;;;;;6.07;5.47;;;;;;;21.79;38.92;94327.19;6231573;27;103375;-62
2022/11/24 08:25:18;;;;;;;5.90;5.40;;;;;;;21.84;39.22;94337.66;6226225;28;105723;-65
2022/11/24 08:28:22;;;;;;;8.10;7.40;;;;;;;21.84;39.92;94334.22;6234083;27;104832;-64
2022/11/24 08:31:31;;;;;;;9.47;8.57;;;;;;;21.84;40.23;94352.88;6232141;28;104240;-66
2022/11/24 08:34:36;;;;;;;10.33;9.33;;;;;;;21.82;39.82;94347.88;6223767;27;104431;-65
2022/11/24 08:37:40;;;;;;;8.90;8.10;;;;;;;21.80;39.86;94361.47;6233217;28;103680;-65
2022/11/24 08:40:43;;;;;;;8.73;7.93;;;;;;;21.78;40.13;94358.34;6232951;28;103762;-65
2022/11/24 08:43:46;;;;;;;8.00;7.40;;;;;;;21.78;40.05;94361.00;6232693;27;104009;-65
2022/11/24 08:46:50;;;;;;;7.67;7.00;;;;;;;21.77;39.59;94367.44;6221953;28;104184;-65
2022/11/24 08:49:53;;;;;;;8.50;7.70;;;;;;;21.76;39.79;94368.53;6232918;27;103843;-65
2022/11/24 08:52:57;;;;;;;8.30;7.60;;;;;;;21.75;39.62;94382.97;6232582;27;103464;-65
2022/11/24 08:56:01;;;;;;;8.27;7.57;;;;;;;21.76;39.67;94376.53;6233217;28;104242;-65
2022/11/24 08:59:04;;;;;;;8.50;7.70;;;;;;;21.75;40.14;94382.97;6221573;27;104007;-65
2022/11/24 09:02:11;;;;;;;7.83;7.13;;;;;;;21.73;39.47;94382.50;6231308;27;103694;-65
2022/11/24 09:05:15;;;;;;;7.50;6.90;;;;;;;21.75;39.54;94382.97;6233152;27;104136;-64
2022/11/24 09:08:39;;;;;;;8.40;7.60;;;;;;;21.75;39.77;94379.53;6222436;28;105682;-65
2022/11/24 09:11:42;;;;;;;8.10;7.40;;;;;;;21.75;39.74;94390.97;6232721;27;104152;-64
2022/11/24 09:14:45;;;;;;;7.67;6.90;;;;;;;21.76;39.61;94397.84;6231827;27;105165;-65
2022/11/24 09:17:48;;;;;;;6.80;6.30;;;;;;;21.76;39.54;94400.50;6232755;28;107573;-65
2022/11/24 09:20:51;;;;;;;7.80;7.00;;;;;;;21.76;39.97;94395.19;6220658;27;103799;-65
2022/11/24 09:23:56;;;;;;;8.00;7.20;;;;;;;21.77;40.02;94395.97;6231797;28;106404;-65
2022/11/24 09:26:59;;;;;;;7.80;7.10;;;;;;;21.77;39.57;94391.41;6232078;27;103901;-65
2022/11/24 09:30:02;;;;;;;7.80;7.10;;;;;;;21.78;39.97;94394.84;6232527;27;104731;-65
2022/11/24 09:33:05;;;;;;;6.70;6.20;;;;;;;21.78;39.42;94402.84;6222888;27;104240;-65
2022/11/24 09:36:09;;;;;;;7.00;6.50;;;;;;;21.78;39.61;94394.84;6233068;27;103910;-65
2022/11/24 09:39:13;;;;;;;7.10;6.50;;;;;;;21.79;39.79;94404.41;6233172;28;104043;-64
2022/11/24 09:42:24;;;;;;;6.43;5.83;;;;;;;21.77;39.84;94394.06;6224561;27;103746;-64
2022/11/24 09:45:47;;;;;;;7.23;6.60;;;;;;;21.78;39.48;94394.84;6231447;27;103800;-64
2022/11/24 09:49:14;;;;;;;7.23;6.53;;;;;;;21.80;39.61;94400.66;6232792;28;103383;-64
2022/11/24 09:52:24;;;;;;;6.80;6.30;;;;;;;21.78;39.35;94408.94;6232642;28;104888;-64
2022/11/24 09:55:35;;;;;;;7.40;6.80;;;;;;;21.79;39.38;94413.19;6222378;27;104081;-65
2022/11/24 09:58:44;;;;;;;6.50;5.90;;;;;;;21.78;39.75;94408.94;6231934;27;103945;-65
2022/11/24 10:01:48;;;;;;;5.77;5.33;;;;;;;21.80;39.38;94408.63;6232714;27;103895;-65
2022/11/24 10:04:53;;;;;;;6.83;6.27;;;;;;;21.80;39.68;94414.75;6225732;28;103759;-65
2022/11/24 10:08:14;;;;;;;5.90;5.40;;;;;;;21.79;39.72;94429.16;6228358;28;103638;-65
2022/11/24 10:11:31;;;;;;;6.03;5.53;;;;;;;21.79;39.56;94425.72;6232224;27;103777;-65
2022/11/24 10:15:17;;;;;;;6.53;6.00;;;;;;;21.78;39.89;94418.81;6235771;28;103437;-65
2022/11/24 10:18:37;;;;;;;5.93;5.33;;;;;;;21.79;39.28;94417.72;6225343;27;103842;-64
2022/11/24 10:22:03;;;;;;;6.40;5.90;;;;;;;21.79;39.33;94423.06;6235667;27;104697;-64
2022/11/24 10:25:18;;;;;;;5.90;5.47;;;;;;;21.80;39.41;94427.28;6235749;27;103452;-64
2022/11/24 10:28:29;;;;;;;6.20;5.70;;;;;;;21.78;39.22;94421.50;6224690;27;103656;-64
2022/11/24 10:31:35;;;;;;;6.10;5.50;;;;;;;21.79;39.73;94423.06;6235604;27;103651;-64
2022/11/24 10:34:43;;;;;;;5.40;5.00;;;;;;;21.79;39.32;94429.16;6235480;28;104416;-65
2022/11/24 10:37:58;;;;;;;6.07;5.57;;;;;;;21.80;39.83;94425.41;6234926;27;103743;-65
2022/11/24 10:41:07;;;;;;;6.20;5.70;;;;;;;21.79;39.65;94425.72;6223886;27;103887;-65
2022/11/24 10:44:14;;;;;;;5.03;4.67;;;;;;;21.80;39.78;94425.41;6234577;27;103797;-64
2022/11/24 10:47:21;;;;;;;6.53;5.83;;;;;;;21.79;39.22;94439.81;6235332;28;104683;-64
2022/11/24 10:50:26;;;;;;;5.97;5.47;;;;;;;21.80;39.29;94421.94;6229464;28;104493;-64
2022/11/24 10:53:31;;;;;;;5.50;5.00;;;;;;;21.78;39.46;94427.59;6233650;27;103733;-64
2022/11/24 10:56:40;;;;;;;4.90;4.50;;;;;;;21.79;39.26;94425.72;6234544;27;104578;-64
2022/11/24 10:59:44;;;;;;;5.53;4.93;;;;;;;21.77;39.56;94420.72;6235322;27;103680;-64
2022/11/24 11:02:48;;;;;;;4.90;4.50;;;;;;;21.78;39.51;94422.28;6225401;28;104876;-64
2022/11/24 11:05:55;;;;;;;4.97;4.57;;;;;;;21.78;39.21;94427.59;6234561;27;103791;-64
2022/11/24 11:09:18;;;;;;;4.97;4.47;;;;;;;21.78;39.32;94421.50;6234422;28;104681;-63
2022/11/24 11:12:23;;;;;;;5.20;4.80;;;;;;;21.76;39.58;94419.16;6233982;27;103671;-63
2022/11/24 11:15:47;;;;;;;5.03;4.63;;;;;;;21.77;39.44;94417.25;6229039;28;103723;-64
2022/11/24 11:18:50;;;;;;;4.73;4.33;;;;;;;21.78;39.58;94424.16;6234283;27;103970;-64
2022/11/24 11:22:01;;;;;;;4.40;4.00;;;;;;;21.77;39.79;94420.72;6234678;27;103482;-64
2022/11/24 11:25:18;;;;;;;4.33;4.03;;;;;;;21.78;39.29;94429.47;6222416;27;105119;-64
2022/11/24 11:28:28;;;;;;;4.80;4.50;;;;;;;21.78;39.74;94432.16;6233793;27;103880;-63
2022/11/24 11:31:34;;;;;;;5.17;4.77;;;;;;;21.78;39.31;94432.16;6234410;27;104024;-64
2022/11/24 11:34:37;;;;;;;5.17;4.77;;;;;;;21.78;39.51;94432.16;6234269;27;104266;-64
2022/11/24 11:37:41;;;;;;;4.70;4.30;;;;;;;21.78;39.24;94432.16;6223508;27;103793;-65
2022/11/24 11:40:44;;;;;;;4.90;4.50;;;;;;;21.77;39.30;94433.25;6233713;27;104485;-64
2022/11/24 11:43:53;;;;;;;3.90;3.60;;;;;;;21.76;39.57;94426.34;6234093;28;105205;-64
2022/11/24 11:46:59;;;;;;;4.30;3.90;;;;;;;21.76;39.13;94434.34;6229398;28;104209;-65
2022/11/24 11:50:03;;;;;;;4.30;3.93;;;;;;;21.78;39.38;94432.16;6228430;27;103754;-64
2022/11/24 11:53:17;;;;;;;4.70;4.30;;;;;;;21.74;39.31;94434.66;6234523;28;103964;-64
2022/11/24 11:56:26;;;;;;;4.53;4.13;;;;;;;21.76;39.77;94427.13;6233272;27;103999;-65
2022/11/24 12:00:04;;;;;;;4.50;4.10;;;;;;;21.75;39.89;94443.44;6224293;27;104867;-65
2022/11/24 12:03:48;;;;;;;5.20;4.70;;;;;;;21.76;39.19;94439.66;6234871;27;103907;-65
2022/11/24 12:07:17;;;;;;;3.77;3.50;;;;;;;21.74;39.03;94447.19;6218358;27;103998;-65
2022/11/24 12:10:31;;;;;;;4.20;3.90;;;;;;;21.75;39.79;94462.06;6223680;27;104165;-65
2022/11/24 12:13:47;;;;;;;3.80;3.50;;;;;;;21.75;39.61;94459.41;6232647;27;103759;-66
2022/11/24 12:17:01;;;;;;;4.47;4.17;;;;;;;21.74;39.63;94463.97;6234057;28;103860;-66
2022/11/24 12:20:18;;;;;;;4.57;4.27;;;;;;;21.74;39.71;94463.19;6233949;28;104826;-66
2022/11/24 12:23:31;;;;;;;3.73;3.43;;;;;;;21.75;39.28;94459.41;6223259;27;104231;-65
2022/11/24 12:26:41;;;;;;;4.30;4.00;;;;;;;21.74;39.36;94465.84;6233053;28;104835;-65
2022/11/24 12:30:10;;;;;;;4.00;3.70;;;;;;;21.74;39.13;94466.63;6233458;27;103892;-65
2022/11/24 12:33:35;;;;;;;3.77;3.47;;;;;;;21.76;39.50;94466.31;6222330;28;104436;-65
2022/11/24 12:37:03;;;;;;;4.50;4.20;;;;;;;21.76;39.43;94471.63;6232358;27;103655;-66
2022/11/24 12:40:15;;;;;;;3.73;3.43;;;;;;;21.74;39.58;94474.63;6233391;28;103660;-65
2022/11/24 12:43:24;;;;;;;4.00;3.70;;;;;;;21.75;39.67;94478.06;6231380;27;103725;-66
2022/11/24 12:46:36;;;;;;;3.67;3.40;;;;;;;21.72;39.52;94465.38;6226679;28;107204;-65
2022/11/24 12:49:50;;;;;;;4.23;3.93;;;;;;;21.75;39.34;94478.84;6232734;27;103679;-66
2022/11/24 12:52:59;;;;;;;4.10;3.70;;;;;;;21.74;39.64;94474.63;6233284;27;103769;-65
2022/11/24 12:56:10;;;;;;;3.93;3.60;;;;;;;21.75;39.60;94480.72;6222441;28;103460;-66
2022/11/24 12:59:25;;;;;;;3.73;3.43;;;;;;;21.74;39.28;94477.28;6233901;28;104836;-64
2022/11/24 13:02:43;;;;;;;3.80;3.50;;;;;;;21.75;39.58;94470.06;6233321;28;103703;-64
2022/11/24 13:05:53;;;;;;;3.70;3.40;;;;;;;21.75;39.52;94470.06;6239988;27;104200;-65
2022/11/24 13:08:56;;;;;;;3.87;3.57;;;;;;;21.74;39.23;94471.16;6223685;27;104718;-64
2022/11/24 13:12:12;;;;;;;3.20;2.90;;;;;;;21.74;39.67;94476.50;6232312;28;103861;-63
2022/11/24 13:15:16;;;;;;;3.37;3.07;;;;;;;21.73;39.42;94474.94;6233628;28;105785;-65
2022/11/24 13:18:45;;;;;;;3.40;3.20;;;;;;;21.69;39.26;94487.31;6213280;28;103741;-64
2022/11/24 13:21:59;;;;;;;3.10;2.90;;;;;;;21.65;38.99;94481.03;6208817;28;103931;-64
2022/11/24 13:25:19;;;;;;;3.27;3.07;;;;;;;21.69;38.93;94472.13;6207407;28;104207;-64
2022/11/24 13:28:59;;;;;;;3.80;3.50;;;;;;;21.76;38.74;94476.97;6208394;28;103687;-66
2022/11/24 13:32:51;;;;;;;3.37;3.07;;;;;;;21.79;39.17;94477.09;6202305;28;103687;-65
2022/11/24 13:36:28;;;;;;;3.20;2.90;;;;;;;21.81;39.05;94484.75;6208112;28;104108;-66
2022/11/24 13:39:49;;;;;;;3.77;3.40;;;;;;;21.83;39.55;94485.25;6207687;28;104837;-65
2022/11/24 13:43:20;;;;;;;3.27;3.00;;;;;;;21.84;39.74;94486.81;6199015;28;104468;-66
2022/11/24 13:46:53;;;;;;;3.20;3.00;;;;;;;21.84;39.33;94491.38;6213510;28;103808;-65
2022/11/24 13:50:06;;;;;;;3.23;2.50;;;;;;;21.84;39.35;94497.47;6237118;28;103784;-65
2022/11/24 13:53:15;;;;;;;3.00;2.80;;;;;;;21.85;39.54;94491.06;6225567;27;103949;-65
2022/11/24 13:56:25;;;;;;;4.97;2.97;;;;;;;21.85;39.24;94492.97;6236713;28;106398;-65
2022/11/24 13:59:34;;;;;;;3.17;2.87;;;;;;;21.86;39.37;94483.88;6236786;27;103826;-65
2022/11/24 14:02:37;;;;;;;3.33;3.03;;;;;;;21.86;39.77;94495.31;6235507;28;104857;-65
2022/11/24 14:05:48;;;;;;;2.97;2.67;;;;;;;21.88;40.12;94501.09;6213445;27;103653;-65
2022/11/24 14:08:52;;;;;;;3.33;3.03;;;;;;;21.87;39.94;94510.19;6212797;27;104186;-64
2022/11/24 14:12:06;;;;;;;2.77;2.57;;;;;;;21.87;39.80;94512.84;6224891;28;104048;-65
2022/11/24 14:15:23;;;;;;;3.30;3.10;;;;;;;21.88;40.14;94522.41;6225907;27;104723;-66
2022/11/24 14:18:27;;;;;;;2.80;2.60;;;;;;;21.88;40.52;94521.63;6234891;27;103890;-65
2022/11/24 14:21:36;;;;;;;2.40;2.20;;;;;;;21.87;40.09;94528.84;6236174;28;103370;-66
2022/11/24 14:24:42;;;;;;;3.30;2.93;;;;;;;21.86;40.35;94527.28;6234189;27;103884;-65
2022/11/24 14:27:46;;;;;;;2.80;2.60;;;;;;;21.86;40.53;94535.25;6224930;28;105252;-65
2022/11/24 14:30:49;;;;;;;2.97;2.77;;;;;;;21.86;40.07;94524.59;6236331;28;103690;-65